Glory — V7EW3 — position and weather

sailwx.info

Track history (hours):
 
Tides and Currents Weather Stations Pressure Air Temp Water Temp Dewpoint Dewpoint Depression Visibility Wind Speed Wind Dir Waves Ship Positions

Glory

Last reported at 2018-Apr-12 18:50 UTC. Time now 2018-Apr-22 01:15 UTC.
Position N 48°31' W 126°36'.
Warning: this ship's position is 9 days out of date.

Length 225 m; draft 12.9 m.

Type: Cargo ship. MMSI: 538005544.

Date/timePositionNaut miles runAvg speedWind from/ knotsBaromVisibWave heightAir tempDewpointWater temp
2018-Apr-12 18:50N 48°31' W 126°36'410.0
2018-Apr-12 18:28N 48°32' W 126°30'510.4
2018-Apr-12 17:59N 48°32' W 126°23'510.6
2018-Apr-12 17:30N 48°32' W 126°15'611.0
2018-Apr-12 17:00N 48°32' W 126°07'611.2
2018-Apr-12 16:30N 48°31' W 125°58'611.2
2018-Apr-12 15:59N 48°31' W 125°50'511.0
2018-Apr-12 15:30N 48°31' W 125°42'510.1
2018-Apr-12 15:00N 48°31' W 125°34'510.0
2018-Apr-12 14:30N 48°31' W 125°26'510.0
2018-Apr-12 14:00N 48°31' W 125°19'5 9.8
2018-Apr-12 13:30N 48°31' W 125°11'510.5
2018-Apr-12 12:59N 48°32' W 125°03'510.0
2018-Apr-12 12:29N 48°32' W 124°56'5 9.4
2018-Apr-12 12:00N 48°32' W 124°49'5 9.4
2018-Apr-12 11:30N 48°30' W 124°42'5 9.0
2018-Apr-12 11:00N 48°29' W 124°36'4 8.8
2018-Apr-12 10:30N 48°27' W 124°30'4 8.7
2018-Apr-12 10:00N 48°25' W 124°24'5 9.3
2018-Apr-12 09:30N 48°23' W 124°17'510.2
2018-Apr-12 09:00N 48°21' W 124°10'510.0
2018-Apr-12 08:30N 48°19' W 124°03'610.8
2018-Apr-12 08:00N 48°18' W 123°56'610.3
2018-Apr-12 07:22N 48°17' W 123°46'4 9.7
2018-Apr-12 06:59N 48°16' W 123°40'5 9.7
2018-Apr-12 06:29N 48°16' W 123°33'10 9.7
2018-Apr-12 05:27N 48°23' W 123°23'4 8.7
2018-Apr-12 05:00N 48°23' W 123°18'5 9.7
2018-Apr-12 04:30N 48°26' W 123°12'612.1
2018-Apr-12 04:00N 48°32' W 123°13'612.5
2018-Apr-12 03:30N 48°38' W 123°14'510.4
2018-Apr-12 02:59N 48°43' W 123°11'612.3
2018-Apr-12 02:30N 48°46' W 123°03'5 9.7
2018-Apr-12 01:57N 48°51' W 123°03'712.2
2018-Apr-12 01:20N 48°56' W 123°11'412.0
2018-Apr-12 00:59N 48°59' W 123°16'611.8
2018-Apr-12 00:28N 49°03' W 123°23'510.8
2018-Apr-12 00:00N 49°08' W 123°23'611.4
2018-Apr-11 23:29N 49°14' W 123°21'510.9
2018-Apr-11 23:00N 49°19' W 123°17'5 9.8
2018-Apr-11 22:30N 49°19' W 123°09'3 6.4
2018-Apr-11 22:00N 49°18' W 123°05'0 0.4
2018-Apr-11 21:30N 49°17' W 123°05'0 0.0
2018-Apr-11 21:00N 49°17' W 123°05'0 0.0
2018-Apr-11 20:29N 49°17' W 123°05'0 0.1
2018-Apr-11 19:59N 49°17' W 123°05'0 0.1
2018-Apr-11 19:26N 49°17' W 123°05'0 0.0
2018-Apr-11 18:56N 49°17' W 123°05'0 0.0
2018-Apr-11 18:29N 49°17' W 123°05'0 0.0
2018-Apr-11 17:59N 49°17' W 123°05'0 0.0
2018-Apr-11 17:29N 49°17' W 123°05'0 0.0
2018-Apr-11 16:59N 49°17' W 123°05'0 0.1
2018-Apr-11 16:29N 49°17' W 123°05'0 0.1
2018-Apr-11 15:59N 49°17' W 123°05'0 0.0
2018-Apr-11 15:29N 49°17' W 123°05'0 0.0
2018-Apr-11 14:59N 49°17' W 123°05'0 0.0
2018-Apr-11 14:29N 49°17' W 123°05'0 0.0
2018-Apr-11 13:59N 49°17' W 123°05'0 0.0
2018-Apr-11 13:29N 49°17' W 123°05'0 0.0
2018-Apr-11 12:59N 49°17' W 123°05'0 0.0
2018-Apr-11 12:29N 49°17' W 123°05'0 0.0
2018-Apr-11 11:59N 49°17' W 123°05'0 0.0
2018-Apr-11 11:29N 49°17' W 123°05'0 0.0
2018-Apr-11 10:59N 49°17' W 123°05'0 0.0
2018-Apr-11 10:29N 49°17' W 123°05'0 0.0
2018-Apr-11 09:59N 49°17' W 123°05'0 0.0
2018-Apr-11 09:29N 49°17' W 123°05'0 0.0
2018-Apr-11 08:59N 49°17' W 123°05'0 0.0
2018-Apr-11 08:29N 49°17' W 123°05'0 0.0
2018-Apr-11 07:59N 49°17' W 123°05'0 0.0
2018-Apr-11 07:29N 49°17' W 123°05'0 0.0
2018-Apr-11 06:59N 49°17' W 123°05'0 0.0
2018-Apr-11 06:29N 49°17' W 123°05'0 0.0
2018-Apr-11 05:59N 49°17' W 123°05'0 0.0
2018-Apr-11 05:29N 49°17' W 123°05'0 0.0
2018-Apr-11 04:59N 49°17' W 123°05'0 0.0
2018-Apr-11 04:29N 49°17' W 123°05'0 0.0
2018-Apr-11 03:59N 49°17' W 123°05'0 0.0
2018-Apr-11 03:29N 49°17' W 123°05'0 0.0
2018-Apr-11 02:56N 49°17' W 123°05'0 0.0
2018-Apr-11 02:29N 49°17' W 123°05'0 0.0
2018-Apr-11 01:59N 49°17' W 123°05'0 0.1
2018-Apr-11 01:29N 49°17' W 123°05'0 0.1
2018-Apr-11 00:59N 49°17' W 123°05'0 0.0
2018-Apr-11 00:29N 49°17' W 123°05'0 0.0
2018-Apr-10 23:59N 49°17' W 123°05'0 0.0
2018-Apr-10 23:29N 49°17' W 123°05'0 0.0
2018-Apr-10 22:59N 49°17' W 123°05'0 0.0
2018-Apr-10 22:29N 49°17' W 123°05'0 0.0
2018-Apr-10 21:59N 49°17' W 123°05'0 0.0
2018-Apr-10 21:29N 49°17' W 123°05'0 0.0
2018-Apr-10 20:56N 49°17' W 123°05'0 0.0
2018-Apr-10 20:29N 49°17' W 123°05'0 0.0
2018-Apr-10 19:59N 49°17' W 123°05'0 0.0
2018-Apr-10 19:26N 49°17' W 123°05'0 0.0
2018-Apr-10 18:59N 49°17' W 123°05'0 0.0
2018-Apr-10 18:29N 49°17' W 123°05'0 0.0
2018-Apr-10 17:59N 49°17' W 123°05'0 0.0
2018-Apr-10 17:29N 49°17' W 123°05'0 0.0
2018-Apr-10 16:58N 49°17' W 123°05'0 0.0
2018-Apr-10 16:28N 49°17' W 123°05'0 0.0
2018-Apr-10 15:58N 49°17' W 123°05'0 0.0
2018-Apr-10 15:28N 49°17' W 123°05'0 0.0
2018-Apr-10 14:58N 49°17' W 123°05'0 0.0
2018-Apr-10 14:28N 49°17' W 123°05'0 0.0
2018-Apr-10 13:58N 49°17' W 123°05'0 0.2
2018-Apr-10 13:28N 49°17' W 123°05'0 0.4
2018-Apr-10 12:58N 49°17' W 123°05'0 0.0
2018-Apr-10 12:22N 49°17' W 123°05'0 0.0
2018-Apr-10 11:58N 49°17' W 123°05'0 0.0
2018-Apr-10 11:28N 49°17' W 123°05'0 0.0
2018-Apr-10 10:58N 49°17' W 123°05'0 0.0
2018-Apr-10 10:28N 49°17' W 123°05'0 0.0
2018-Apr-10 09:58N 49°17' W 123°05'0 0.0
2018-Apr-10 09:28N 49°17' W 123°05'0 0.0
2018-Apr-10 08:58N 49°17' W 123°05'0 0.1
2018-Apr-10 08:28N 49°17' W 123°05'0 0.1
2018-Apr-10 07:58N 49°17' W 123°05'0 0.0
2018-Apr-10 07:28N 49°17' W 123°05'0 0.0
2018-Apr-10 06:58N 49°17' W 123°05'0 0.0
2018-Apr-10 06:28N 49°17' W 123°05'0 0.1
2018-Apr-10 05:58N 49°17' W 123°05'0 0.1
2018-Apr-10 05:28N 49°17' W 123°05'0 0.0
2018-Apr-10 04:58N 49°17' W 123°05'0 0.0
2018-Apr-10 04:28N 49°17' W 123°05'0 0.0
2018-Apr-10 03:58N 49°17' W 123°05'0 0.0
2018-Apr-10 03:28N 49°17' W 123°05'0 0.0
2018-Apr-10 02:52N 49°17' W 123°05'0 0.0
2018-Apr-10 02:28N 49°17' W 123°05'0 0.0
2018-Apr-10 01:58N 49°17' W 123°05'0 0.0
2018-Apr-10 01:28N 49°17' W 123°05'0 0.0
2018-Apr-10 00:58N 49°17' W 123°05'0 0.0
2018-Apr-10 00:28N 49°17' W 123°05'0 0.0
2018-Apr-09 23:58N 49°17' W 123°05'0 0.0
2018-Apr-09 23:28N 49°17' W 123°05'0 0.0
2018-Apr-09 22:58N 49°17' W 123°05'0 0.0
2018-Apr-09 22:28N 49°17' W 123°05'0 0.0
2018-Apr-09 21:58N 49°17' W 123°05'0 0.0
2018-Apr-09 21:28N 49°17' W 123°05'0 0.0
2018-Apr-09 20:58N 49°17' W 123°05'0 0.0
2018-Apr-09 20:28N 49°17' W 123°05'0 0.0
2018-Apr-09 19:58N 49°17' W 123°05'0 0.0
2018-Apr-09 19:28N 49°17' W 123°05'0 0.0
2018-Apr-09 18:58N 49°17' W 123°05'0 0.0
2018-Apr-09 18:28N 49°17' W 123°05'0 0.0
2018-Apr-09 17:58N 49°17' W 123°05'0 0.1
2018-Apr-09 17:28N 49°17' W 123°05'0 0.1
2018-Apr-09 16:58N 49°17' W 123°05'0 0.0
2018-Apr-09 16:28N 49°17' W 123°05'0 0.0
2018-Apr-09 15:58N 49°17' W 123°05'0 0.0
2018-Apr-09 15:28N 49°17' W 123°05'0 0.0
2018-Apr-09 14:58N 49°17' W 123°05'0 0.0
2018-Apr-09 14:31N 49°17' W 123°05'0 0.0
2018-Apr-09 14:01N 49°17' W 123°05'0 0.0
2018-Apr-09 13:30N 49°17' W 123°05'0 0.0
2018-Apr-09 13:01N 49°17' W 123°05'0 0.0
2018-Apr-09 12:30N 49°17' W 123°05'0 0.1
2018-Apr-09 12:00N 49°17' W 123°05'0 0.1
2018-Apr-09 11:30N 49°17' W 123°05'0 0.0
2018-Apr-09 11:00N 49°17' W 123°05'0 0.0
2018-Apr-09 10:30N 49°17' W 123°05'0 0.0
2018-Apr-09 09:57N 49°17' W 123°05'0 0.0
2018-Apr-09 09:30N 49°17' W 123°05'0 0.0
2018-Apr-09 09:00N 49°17' W 123°05'0 0.0
2018-Apr-09 08:30N 49°17' W 123°05'0 0.0
2018-Apr-09 08:00N 49°17' W 123°05'0 0.0
2018-Apr-09 07:30N 49°17' W 123°05'0 0.0
2018-Apr-09 07:00N 49°17' W 123°05'0 0.0
2018-Apr-09 06:30N 49°17' W 123°05'0 0.5
2018-Apr-09 06:00N 49°18' W 123°05'3 5.5
2018-Apr-09 05:31N 49°19' W 123°08'2 3.9
2018-Apr-09 05:00N 49°18' W 123°11'0 0.5
2018-Apr-09 04:22N 49°18' W 123°11'0 0.0
2018-Apr-09 03:55N 49°18' W 123°11'0 0.0
2018-Apr-09 03:28N 49°18' W 123°11'0 0.0
2018-Apr-09 02:58N 49°18' W 123°11'0 0.0
2018-Apr-09 02:28N 49°18' W 123°11'0 0.1
2018-Apr-09 01:55N 49°18' W 123°11'0 0.1
2018-Apr-09 01:28N 49°18' W 123°11'0 0.1
2018-Apr-09 00:58N 49°18' W 123°11'0 0.3
2018-Apr-09 00:25N 49°18' W 123°11'0 0.2
2018-Apr-08 23:58N 49°18' W 123°11'0 0.2
2018-Apr-08 23:28N 49°18' W 123°11'0 0.0
2018-Apr-08 22:58N 49°18' W 123°11'0 0.0
2018-Apr-08 22:28N 49°18' W 123°11'0 0.1
2018-Apr-08 21:52N 49°18' W 123°11'0 0.0
2018-Apr-08 21:28N 49°18' W 123°11'0 0.1
2018-Apr-08 20:58N 49°18' W 123°11'0 0.0
2018-Apr-08 20:28N 49°18' W 123°11'0 0.0
2018-Apr-08 19:58N 49°18' W 123°11'0 0.2
2018-Apr-08 19:25N 49°18' W 123°11'0 0.1
2018-Apr-08 18:49N 49°18' W 123°11'0 0.1
2018-Apr-08 18:28N 49°18' W 123°11'0 0.0
2018-Apr-08 17:58N 49°18' W 123°11'0 0.0
2018-Apr-08 17:25N 49°18' W 123°11'0 0.1
2018-Apr-08 16:58N 49°18' W 123°11'0 0.1
2018-Apr-08 16:28N 49°18' W 123°11'0 0.1
2018-Apr-08 15:58N 49°18' W 123°11'0 0.0
2018-Apr-08 15:28N 49°18' W 123°11'0 0.1
2018-Apr-08 14:55N 49°18' W 123°11'0 0.0
2018-Apr-08 14:28N 49°18' W 123°11'0 0.0
2018-Apr-08 13:58N 49°18' W 123°11'0 0.0
2018-Apr-08 13:28N 49°18' W 123°11'0 0.2
2018-Apr-08 12:58N 49°18' W 123°11'0 0.1
2018-Apr-08 12:28N 49°18' W 123°11'0 0.0
2018-Apr-08 11:58N 49°18' W 123°11'0 0.1
2018-Apr-08 11:28N 49°18' W 123°11'0 0.1
2018-Apr-08 10:58N 49°18' W 123°11'0 0.1
2018-Apr-08 10:28N 49°18' W 123°11'0 0.0
2018-Apr-08 09:58N 49°18' W 123°11'0 0.1
2018-Apr-08 09:28N 49°18' W 123°11'0 0.0
2018-Apr-08 08:58N 49°18' W 123°11'0 0.1
2018-Apr-08 08:28N 49°18' W 123°11'0 0.0
2018-Apr-08 07:58N 49°18' W 123°11'0 0.1
2018-Apr-08 07:28N 49°18' W 123°11'0 0.0
2018-Apr-08 06:58N 49°18' W 123°11'0 0.1
2018-Apr-08 06:28N 49°18' W 123°11'0 0.0
2018-Apr-08 05:55N 49°18' W 123°11'0 0.0
2018-Apr-08 05:22N 49°18' W 123°11'0 0.0
2018-Apr-08 05:01N 49°18' W 123°11'0 0.1
2018-Apr-08 04:28N 49°18' W 123°11'0 0.1
2018-Apr-08 03:58N 49°18' W 123°11'0 0.0
2018-Apr-08 03:27N 49°18' W 123°11'0 0.1
2018-Apr-08 03:00N 49°18' W 123°11'0 0.1
2018-Apr-08 02:27N 49°18' W 123°11'0 0.1
2018-Apr-08 02:00N 49°18' W 123°11'0 0.0
2018-Apr-08 01:27N 49°18' W 123°11'0 0.2
2018-Apr-08 01:00N 49°18' W 123°11'0 0.0
2018-Apr-08 00:30N 49°18' W 123°11'0 0.0
2018-Apr-08 00:00N 49°18' W 123°11'0 0.0
2018-Apr-07 23:30N 49°18' W 123°11'0 0.0
2018-Apr-07 22:51N 49°18' W 123°11'0 0.1
2018-Apr-07 22:24N 49°18' W 123°11'0 0.1
2018-Apr-07 22:00N 49°18' W 123°11'0 0.2
2018-Apr-07 21:30N 49°18' W 123°11'0 0.0
2018-Apr-07 20:57N 49°18' W 123°11'0 0.0
2018-Apr-07 20:30N 49°18' W 123°11'0 0.0
2018-Apr-07 20:00N 49°18' W 123°11'0 0.0
2018-Apr-07 19:30N 49°18' W 123°11'0 0.0
2018-Apr-07 19:00N 49°18' W 123°11'0 0.1
2018-Apr-07 18:27N 49°18' W 123°11'0 0.0
2018-Apr-07 17:48N 49°18' W 123°11'0 0.0
2018-Apr-07 17:30N 49°18' W 123°11'0 0.0
2018-Apr-07 17:00N 49°18' W 123°11'0 0.0
2018-Apr-07 16:21N 49°18' W 123°11'0 0.2
2018-Apr-07 15:45N 49°18' W 123°11'0 0.2
2018-Apr-07 15:30N 49°18' W 123°11'0 0.1
2018-Apr-07 14:57N 49°18' W 123°11'0 0.1
2018-Apr-07 14:30N 49°18' W 123°11'0 0.0
2018-Apr-07 13:57N 49°18' W 123°11'0 0.1
2018-Apr-07 13:30N 49°18' W 123°11'0 0.0
2018-Apr-07 13:00N 49°18' W 123°11'0 0.1
2018-Apr-07 12:27N 49°18' W 123°11'0 0.0
2018-Apr-07 12:00N 49°18' W 123°11'0 0.0
2018-Apr-07 11:30N 49°18' W 123°11'0 0.0
2018-Apr-07 11:00N 49°18' W 123°11'0 0.1
2018-Apr-07 10:27N 49°18' W 123°11'0 0.1
2018-Apr-07 10:00N 49°18' W 123°11'0 0.1
2018-Apr-07 09:30N 49°18' W 123°11'0 0.1
2018-Apr-07 09:00N 49°18' W 123°11'0 0.1
2018-Apr-07 08:30N 49°18' W 123°11'0 0.0
2018-Apr-07 08:00N 49°18' W 123°11'0 0.0
2018-Apr-07 07:30N 49°18' W 123°11'0 0.1
2018-Apr-07 07:00N 49°18' W 123°11'0 0.0
2018-Apr-07 06:30N 49°18' W 123°11'0 0.0
2018-Apr-07 06:00N 49°18' W 123°11'0 0.0
2018-Apr-07 05:27N 49°18' W 123°11'0 0.1
2018-Apr-07 05:00N 49°18' W 123°11'0 0.1
2018-Apr-07 04:27N 49°18' W 123°11'0 0.0
2018-Apr-07 04:00N 49°18' W 123°11'0 0.0
2018-Apr-07 03:27N 49°18' W 123°11'0 0.0
2018-Apr-07 02:57N 49°18' W 123°11'0 0.0
2018-Apr-07 02:30N 49°18' W 123°11'0 0.0
2018-Apr-07 02:00N 49°18' W 123°11'0 0.0
2018-Apr-07 01:24N 49°18' W 123°11'0 0.0
2018-Apr-07 01:00N 49°18' W 123°11'0 0.1
2018-Apr-07 00:30N 49°18' W 123°11'0 0.0
2018-Apr-07 00:00N 49°18' W 123°11'0 0.1
2018-Apr-06 23:24N 49°18' W 123°11'0 0.1
2018-Apr-06 22:57N 49°18' W 123°11'0 0.1
2018-Apr-06 22:24N 49°18' W 123°11'0 0.1
2018-Apr-06 22:00N 49°18' W 123°11'0 0.1
2018-Apr-06 21:30N 49°18' W 123°11'0 0.0
2018-Apr-06 21:00N 49°18' W 123°11'0 0.0
2018-Apr-06 20:30N 49°18' W 123°11'0 0.1
2018-Apr-06 20:00N 49°18' W 123°11'0 0.2
2018-Apr-06 19:30N 49°18' W 123°11'0 0.1
2018-Apr-06 19:00N 49°18' W 123°11'0 0.1
2018-Apr-06 18:30N 49°18' W 123°11'0 0.0
2018-Apr-06 17:56N 49°18' W 123°11'0 0.0
2018-Apr-06 17:26N 49°18' W 123°11'0 0.0
2018-Apr-06 16:56N 49°18' W 123°11'0 0.1
2018-Apr-06 16:29N 49°18' W 123°11'0 0.0
2018-Apr-06 15:59N 49°18' W 123°11'0 0.1
2018-Apr-06 15:23N 49°18' W 123°11'0 0.0
2018-Apr-06 14:59N 49°18' W 123°11'0 0.0
2018-Apr-06 14:29N 49°18' W 123°11'0 0.0
2018-Apr-06 13:47N 49°18' W 123°11'0 0.0
2018-Apr-06 13:29N 49°18' W 123°11'0 0.0
2018-Apr-06 12:56N 49°18' W 123°11'0 0.1
2018-Apr-06 12:29N 49°18' W 123°11'0 0.2
2018-Apr-06 11:59N 49°18' W 123°11'0 0.1
2018-Apr-06 11:29N 49°18' W 123°11'0 0.0
2018-Apr-06 10:56N 49°18' W 123°11'0 0.0
2018-Apr-06 10:26N 49°18' W 123°11'0 0.1
2018-Apr-06 09:59N 49°18' W 123°11'0 0.1
2018-Apr-06 09:26N 49°18' W 123°11'0 0.0
2018-Apr-06 08:56N 49°18' W 123°11'0 0.0
2018-Apr-06 08:29N 49°18' W 123°11'0 0.0
2018-Apr-06 07:59N 49°18' W 123°11'0 0.1
2018-Apr-06 07:29N 49°18' W 123°11'0 0.0
2018-Apr-06 06:59N 49°18' W 123°11'0 0.0
2018-Apr-06 06:26N 49°18' W 123°11'0 0.0
2018-Apr-06 05:59N 49°18' W 123°11'0 0.0
2018-Apr-06 05:29N 49°18' W 123°11'0 0.1
2018-Apr-06 04:59N 49°18' W 123°11'0 0.0
2018-Apr-06 04:29N 49°18' W 123°11'0 0.1
2018-Apr-06 03:59N 49°18' W 123°11'0 0.1
2018-Apr-06 03:29N 49°18' W 123°11'0 0.0
2018-Apr-06 02:59N 49°18' W 123°11'0 0.0
2018-Apr-06 02:26N 49°18' W 123°11'0 0.0
2018-Apr-06 01:59N 49°18' W 123°11'0 0.1
2018-Apr-06 01:29N 49°18' W 123°11'0 0.1
2018-Apr-06 00:59N 49°18' W 123°11'0 0.2
2018-Apr-06 00:23N 49°18' W 123°11'0 0.2
2018-Apr-05 23:56N 49°18' W 123°11'0 0.1
2018-Apr-05 23:29N 49°18' W 123°11'0 0.1
2018-Apr-05 22:56N 49°18' W 123°11'0 0.1
2018-Apr-05 22:26N 49°18' W 123°11'0 0.0
2018-Apr-05 21:59N 49°18' W 123°11'0 0.1
2018-Apr-05 21:29N 49°18' W 123°11'0 0.1
2018-Apr-05 20:59N 49°18' W 123°11'0 0.0
2018-Apr-05 20:29N 49°18' W 123°11'0 0.0
2018-Apr-05 19:56N 49°18' W 123°11'0 0.0
2018-Apr-05 19:29N 49°18' W 123°11'0 0.1
2018-Apr-05 18:56N 49°18' W 123°11'0 0.1
2018-Apr-05 18:29N 49°18' W 123°11'0 0.0
2018-Apr-05 17:59N 49°18' W 123°11'0 0.0
2018-Apr-05 17:29N 49°18' W 123°11'0 0.1
2018-Apr-05 16:59N 49°18' W 123°11'0 0.0
2018-Apr-05 16:26N 49°18' W 123°11'0 0.1
2018-Apr-05 15:44N 49°18' W 123°11'0 0.2
2018-Apr-05 15:29N 49°18' W 123°11'0 0.0
2018-Apr-05 14:59N 49°18' W 123°11'0 0.1
2018-Apr-05 14:26N 49°18' W 123°11'0 0.0
2018-Apr-05 13:59N 49°18' W 123°11'0 0.1
2018-Apr-05 13:26N 49°18' W 123°11'0 0.1
2018-Apr-05 12:53N 49°18' W 123°11'0 0.1
2018-Apr-05 12:29N 49°18' W 123°11'0 0.1
2018-Apr-05 11:59N 49°18' W 123°11'0 0.1
2018-Apr-05 11:26N 49°18' W 123°11'0 0.2
2018-Apr-05 10:56N 49°18' W 123°11'0 0.2
2018-Apr-05 10:23N 49°18' W 123°11'0 0.0
2018-Apr-05 09:59N 49°18' W 123°11'0 0.1
2018-Apr-05 09:23N 49°18' W 123°11'0 0.2
2018-Apr-05 08:55N 49°18' W 123°11'0 0.1
2018-Apr-05 08:28N 49°18' W 123°11'0 0.1
2018-Apr-05 07:58N 49°18' W 123°11'0 0.1
2018-Apr-05 07:28N 49°18' W 123°11'0 0.9
2018-Apr-05 07:00N 49°18' W 123°12'3 6.0
2018-Apr-05 06:29N 49°18' W 123°17'510.8
2018-Apr-05 06:00N 49°13' W 123°19'611.3
2018-Apr-05 05:30N 49°07' W 123°21'3 6.3
2018-Apr-05 05:00N 49°07' W 123°16'4 8.3
2018-Apr-05 04:30N 49°07' W 123°09'4 8.7
2018-Apr-05 04:00N 49°08' W 123°03'4 8.6
2018-Apr-05 03:29N 49°09' W 122°57'2 3.5
2018-Apr-05 02:59N 49°11' W 122°55'0 0.2
2018-Apr-05 02:26N 49°11' W 122°55'0 0.0
2018-Apr-05 01:59N 49°11' W 122°55'0 0.0
2018-Apr-05 01:29N 49°11' W 122°55'0 0.0
2018-Apr-05 00:56N 49°11' W 122°55'0 0.0
2018-Apr-05 00:29N 49°11' W 122°55'0 0.0
2018-Apr-04 23:59N 49°11' W 122°55'0 0.0
2018-Apr-04 23:29N 49°11' W 122°55'0 0.0
2018-Apr-04 22:59N 49°11' W 122°55'0 0.0
2018-Apr-04 22:29N 49°11' W 122°55'0 0.0
2018-Apr-04 21:59N 49°11' W 122°55'0 0.0
2018-Apr-04 21:26N 49°11' W 122°55'0 0.0
2018-Apr-04 20:59N 49°11' W 122°55'0 0.0
2018-Apr-04 20:29N 49°11' W 122°55'0 0.0
2018-Apr-04 19:59N 49°11' W 122°55'0 0.0
2018-Apr-04 19:29N 49°11' W 122°55'0 0.0
2018-Apr-04 18:59N 49°11' W 122°55'0 0.0
2018-Apr-04 18:26N 49°11' W 122°55'0 0.0
2018-Apr-04 17:59N 49°11' W 122°55'0 0.0
2018-Apr-04 17:29N 49°11' W 122°55'0 0.0
2018-Apr-04 16:59N 49°11' W 122°55'0 0.0
2018-Apr-04 16:23N 49°11' W 122°55'0 0.0
2018-Apr-04 15:59N 49°11' W 122°55'0 0.0
2018-Apr-04 15:23N 49°11' W 122°55'0 0.0
2018-Apr-04 14:59N 49°11' W 122°55'0 0.0
2018-Apr-04 14:29N 49°11' W 122°55'0 0.0
2018-Apr-04 13:59N 49°11' W 122°55'0 0.0
2018-Apr-04 13:29N 49°11' W 122°55'0 0.0
2018-Apr-04 12:59N 49°11' W 122°55'0 0.0
2018-Apr-04 12:29N 49°11' W 122°55'0 0.0
2018-Apr-04 11:59N 49°11' W 122°55'0 0.0
2018-Apr-04 11:29N 49°11' W 122°55'0 0.0
2018-Apr-04 10:59N 49°11' W 122°55'0 0.0
2018-Apr-04 10:29N 49°11' W 122°55'0 0.0
2018-Apr-04 09:59N 49°11' W 122°55'0 0.0
2018-Apr-04 09:29N 49°11' W 122°55'0 0.0
2018-Apr-04 08:59N 49°11' W 122°55'0 0.0
2018-Apr-04 08:29N 49°11' W 122°55'0 0.0
2018-Apr-04 07:59N 49°11' W 122°55'0 0.0
2018-Apr-04 07:29N 49°11' W 122°55'0 0.0
2018-Apr-04 06:56N 49°11' W 122°55'0 0.0
2018-Apr-04 06:29N 49°11' W 122°55'0 0.0
2018-Apr-04 05:59N 49°11' W 122°55'0 0.0
2018-Apr-04 05:29N 49°11' W 122°55'0 0.0
2018-Apr-04 04:59N 49°11' W 122°55'0 0.0
2018-Apr-04 04:29N 49°11' W 122°55'0 0.0
2018-Apr-04 03:59N 49°11' W 122°55'0 0.0
2018-Apr-04 03:29N 49°11' W 122°55'0 0.0
2018-Apr-04 02:59N 49°11' W 122°55'0 0.0
2018-Apr-04 02:29N 49°11' W 122°55'0 0.0
2018-Apr-04 01:59N 49°11' W 122°55'0 0.0
2018-Apr-04 01:29N 49°11' W 122°55'0 0.0
2018-Apr-04 00:59N 49°11' W 122°55'0 0.0
2018-Apr-04 00:29N 49°11' W 122°55'0 0.0
2018-Apr-03 23:59N 49°11' W 122°55'0 0.0
2018-Apr-03 23:29N 49°11' W 122°55'0 0.0
2018-Apr-03 22:59N 49°11' W 122°55'0 0.0
2018-Apr-03 22:29N 49°11' W 122°55'0 0.0
2018-Apr-03 21:59N 49°11' W 122°55'0 0.0
2018-Apr-03 21:29N 49°11' W 122°55'0 0.0
2018-Apr-03 20:59N 49°11' W 122°55'0 0.0
2018-Apr-03 20:29N 49°11' W 122°55'0 0.0
2018-Apr-03 19:59N 49°11' W 122°55'0 0.0
2018-Apr-03 19:29N 49°11' W 122°55'0 0.0
2018-Apr-03 18:59N 49°11' W 122°55'0 0.0
2018-Apr-03 18:29N 49°11' W 122°55'0 0.0
2018-Apr-03 17:58N 49°11' W 122°55'0 0.0
2018-Apr-03 17:28N 49°11' W 122°55'0 0.0
2018-Apr-03 16:58N 49°11' W 122°55'0 0.0
2018-Apr-03 16:28N 49°11' W 122°55'0 0.0
2018-Apr-03 15:58N 49°11' W 122°55'0 0.0
2018-Apr-03 15:28N 49°11' W 122°55'0 0.0
2018-Apr-03 14:58N 49°11' W 122°55'0 0.0
2018-Apr-03 14:28N 49°11' W 122°55'0 0.0
2018-Apr-03 13:58N 49°11' W 122°55'0 0.0
2018-Apr-03 13:28N 49°11' W 122°55'0 0.0
2018-Apr-03 12:58N 49°11' W 122°55'0 0.0
2018-Apr-03 12:28N 49°11' W 122°55'0 0.0
2018-Apr-03 11:58N 49°11' W 122°55'0 0.0
2018-Apr-03 11:28N 49°11' W 122°55'0 0.0
2018-Apr-03 10:58N 49°11' W 122°55'0 0.0
2018-Apr-03 10:28N 49°11' W 122°55'0 0.0
2018-Apr-03 09:58N 49°11' W 122°55'0 0.0
2018-Apr-03 09:28N 49°11' W 122°55'0 0.0
2018-Apr-03 08:58N 49°11' W 122°55'0 0.0
2018-Apr-03 08:25N 49°11' W 122°55'0 0.0
2018-Apr-03 07:58N 49°11' W 122°55'0 0.0
2018-Apr-03 07:28N 49°11' W 122°55'0 0.0
2018-Apr-03 06:58N 49°11' W 122°55'0 0.0
2018-Apr-03 06:28N 49°11' W 122°55'0 0.0
2018-Apr-03 05:58N 49°11' W 122°55'0 0.0
2018-Apr-03 05:28N 49°11' W 122°55'0 0.0
2018-Apr-03 04:58N 49°11' W 122°55'0 0.0
2018-Apr-03 04:28N 49°11' W 122°55'0 0.0
2018-Apr-03 03:58N 49°11' W 122°55'0 0.0
2018-Apr-03 03:28N 49°11' W 122°55'0 0.0
2018-Apr-03 02:58N 49°11' W 122°55'0 0.0
2018-Apr-03 02:28N 49°11' W 122°55'0 0.0
2018-Apr-03 01:58N 49°11' W 122°55'0 0.0
2018-Apr-03 01:28N 49°11' W 122°55'0 0.0
2018-Apr-03 00:55N 49°11' W 122°55'0 0.0
2018-Apr-03 00:25N 49°11' W 122°55'0 0.0
2018-Apr-02 23:58N 49°11' W 122°55'0 0.0
2018-Apr-02 23:28N 49°11' W 122°55'0 0.0
2018-Apr-02 22:58N 49°11' W 122°55'0 0.0
2018-Apr-02 22:28N 49°11' W 122°55'0 0.0
2018-Apr-02 21:58N 49°11' W 122°55'0 0.0
2018-Apr-02 21:28N 49°11' W 122°55'0 0.0
2018-Apr-02 20:58N 49°11' W 122°55'0 0.0
2018-Apr-02 20:28N 49°11' W 122°55'0 0.0
2018-Apr-02 19:58N 49°11' W 122°55'0 0.0
2018-Apr-02 19:28N 49°11' W 122°55'0 0.0
2018-Apr-02 18:58N 49°11' W 122°55'  
Track history (hours):
 
Tides and Currents Weather Stations Pressure Air Temp Water Temp Dewpoint Dewpoint Depression Visibility Wind Speed Wind Dir Waves Ship Positions

Glory

Last reported at 2018-Apr-12 18:50 UTC. Time now 2018-Apr-22 01:15 UTC.
Position N 48°31' W 126°36'.
Warning: this ship's position is 9 days out of date.

Length 225 m; draft 12.9 m.

Type: Cargo ship. MMSI: 538005544.

Date/timePositionNaut miles runAvg speedWind from/ knotsBaromVisibWave heightAir tempDewpointWater temp
2018-Apr-12 18:50N 48°31' W 126°36'410.0
2018-Apr-12 18:28N 48°32' W 126°30'510.4
2018-Apr-12 17:59N 48°32' W 126°23'510.6
2018-Apr-12 17:30N 48°32' W 126°15'611.0
2018-Apr-12 17:00N 48°32' W 126°07'611.2
2018-Apr-12 16:30N 48°31' W 125°58'611.2
2018-Apr-12 15:59N 48°31' W 125°50'511.0
2018-Apr-12 15:30N 48°31' W 125°42'510.1
2018-Apr-12 15:00N 48°31' W 125°34'510.0
2018-Apr-12 14:30N 48°31' W 125°26'510.0
2018-Apr-12 14:00N 48°31' W 125°19'5 9.8
2018-Apr-12 13:30N 48°31' W 125°11'510.5
2018-Apr-12 12:59N 48°32' W 125°03'510.0
2018-Apr-12 12:29N 48°32' W 124°56'5 9.4
2018-Apr-12 12:00N 48°32' W 124°49'5 9.4
2018-Apr-12 11:30N 48°30' W 124°42'5 9.0
2018-Apr-12 11:00N 48°29' W 124°36'4 8.8
2018-Apr-12 10:30N 48°27' W 124°30'4 8.7
2018-Apr-12 10:00N 48°25' W 124°24'5 9.3
2018-Apr-12 09:30N 48°23' W 124°17'510.2
2018-Apr-12 09:00N 48°21' W 124°10'510.0
2018-Apr-12 08:30N 48°19' W 124°03'610.8
2018-Apr-12 08:00N 48°18' W 123°56'610.3
2018-Apr-12 07:22N 48°17' W 123°46'4 9.7
2018-Apr-12 06:59N 48°16' W 123°40'5 9.7
2018-Apr-12 06:29N 48°16' W 123°33'10 9.7
2018-Apr-12 05:27N 48°23' W 123°23'4 8.7
2018-Apr-12 05:00N 48°23' W 123°18'5 9.7
2018-Apr-12 04:30N 48°26' W 123°12'612.1
2018-Apr-12 04:00N 48°32' W 123°13'612.5
2018-Apr-12 03:30N 48°38' W 123°14'510.4
2018-Apr-12 02:59N 48°43' W 123°11'612.3
2018-Apr-12 02:30N 48°46' W 123°03'5 9.7
2018-Apr-12 01:57N 48°51' W 123°03'712.2
2018-Apr-12 01:20N 48°56' W 123°11'412.0
2018-Apr-12 00:59N 48°59' W 123°16'611.8
2018-Apr-12 00:28N 49°03' W 123°23'510.8
2018-Apr-12 00:00N 49°08' W 123°23'611.4
2018-Apr-11 23:29N 49°14' W 123°21'510.9
2018-Apr-11 23:00N 49°19' W 123°17'5 9.8
2018-Apr-11 22:30N 49°19' W 123°09'3 6.4
2018-Apr-11 22:00N 49°18' W 123°05'0 0.4
2018-Apr-11 21:30N 49°17' W 123°05'0 0.0
2018-Apr-11 21:00N 49°17' W 123°05'0 0.0
2018-Apr-11 20:29N 49°17' W 123°05'0 0.1
2018-Apr-11 19:59N 49°17' W 123°05'0 0.1
2018-Apr-11 19:26N 49°17' W 123°05'0 0.0
2018-Apr-11 18:56N 49°17' W 123°05'0 0.0
2018-Apr-11 18:29N 49°17' W 123°05'0 0.0
2018-Apr-11 17:59N 49°17' W 123°05'0 0.0
2018-Apr-11 17:29N 49°17' W 123°05'0 0.0
2018-Apr-11 16:59N 49°17' W 123°05'0 0.1
2018-Apr-11 16:29N 49°17' W 123°05'0 0.1
2018-Apr-11 15:59N 49°17' W 123°05'0 0.0
2018-Apr-11 15:29N 49°17' W 123°05'0 0.0
2018-Apr-11 14:59N 49°17' W 123°05'0 0.0
2018-Apr-11 14:29N 49°17' W 123°05'0 0.0
2018-Apr-11 13:59N 49°17' W 123°05'0 0.0
2018-Apr-11 13:29N 49°17' W 123°05'0 0.0
2018-Apr-11 12:59N 49°17' W 123°05'0 0.0
2018-Apr-11 12:29N 49°17' W 123°05'0 0.0
2018-Apr-11 11:59N 49°17' W 123°05'0 0.0
2018-Apr-11 11:29N 49°17' W 123°05'0 0.0
2018-Apr-11 10:59N 49°17' W 123°05'0 0.0
2018-Apr-11 10:29N 49°17' W 123°05'0 0.0
2018-Apr-11 09:59N 49°17' W 123°05'0 0.0
2018-Apr-11 09:29N 49°17' W 123°05'0 0.0
2018-Apr-11 08:59N 49°17' W 123°05'0 0.0
2018-Apr-11 08:29N 49°17' W 123°05'0 0.0
2018-Apr-11 07:59N 49°17' W 123°05'0 0.0
2018-Apr-11 07:29N 49°17' W 123°05'0 0.0
2018-Apr-11 06:59N 49°17' W 123°05'0 0.0
2018-Apr-11 06:29N 49°17' W 123°05'0 0.0
2018-Apr-11 05:59N 49°17' W 123°05'0 0.0
2018-Apr-11 05:29N 49°17' W 123°05'0 0.0
2018-Apr-11 04:59N 49°17' W 123°05'0 0.0
2018-Apr-11 04:29N 49°17' W 123°05'0 0.0
2018-Apr-11 03:59N 49°17' W 123°05'0 0.0
2018-Apr-11 03:29N 49°17' W 123°05'0 0.0
2018-Apr-11 02:56N 49°17' W 123°05'0 0.0
2018-Apr-11 02:29N 49°17' W 123°05'0 0.0
2018-Apr-11 01:59N 49°17' W 123°05'0 0.1
2018-Apr-11 01:29N 49°17' W 123°05'0 0.1
2018-Apr-11 00:59N 49°17' W 123°05'0 0.0
2018-Apr-11 00:29N 49°17' W 123°05'0 0.0
2018-Apr-10 23:59N 49°17' W 123°05'0 0.0
2018-Apr-10 23:29N 49°17' W 123°05'0 0.0
2018-Apr-10 22:59N 49°17' W 123°05'0 0.0
2018-Apr-10 22:29N 49°17' W 123°05'0 0.0
2018-Apr-10 21:59N 49°17' W 123°05'0 0.0
2018-Apr-10 21:29N 49°17' W 123°05'0 0.0
2018-Apr-10 20:56N 49°17' W 123°05'0 0.0
2018-Apr-10 20:29N 49°17' W 123°05'0 0.0
2018-Apr-10 19:59N 49°17' W 123°05'0 0.0
2018-Apr-10 19:26N 49°17' W 123°05'0 0.0
2018-Apr-10 18:59N 49°17' W 123°05'0 0.0
2018-Apr-10 18:29N 49°17' W 123°05'0 0.0
2018-Apr-10 17:59N 49°17' W 123°05'0 0.0
2018-Apr-10 17:29N 49°17' W 123°05'0 0.0
2018-Apr-10 16:58N 49°17' W 123°05'0 0.0
2018-Apr-10 16:28N 49°17' W 123°05'0 0.0
2018-Apr-10 15:58N 49°17' W 123°05'0 0.0
2018-Apr-10 15:28N 49°17' W 123°05'0 0.0
2018-Apr-10 14:58N 49°17' W 123°05'0 0.0
2018-Apr-10 14:28N 49°17' W 123°05'0 0.0
2018-Apr-10 13:58N 49°17' W 123°05'0 0.2
2018-Apr-10 13:28N 49°17' W 123°05'0 0.4
2018-Apr-10 12:58N 49°17' W 123°05'0 0.0
2018-Apr-10 12:22N 49°17' W 123°05'0 0.0
2018-Apr-10 11:58N 49°17' W 123°05'0 0.0
2018-Apr-10 11:28N 49°17' W 123°05'0 0.0
2018-Apr-10 10:58N 49°17' W 123°05'0 0.0
2018-Apr-10 10:28N 49°17' W 123°05'0 0.0
2018-Apr-10 09:58N 49°17' W 123°05'0 0.0
2018-Apr-10 09:28N 49°17' W 123°05'0 0.0
2018-Apr-10 08:58N 49°17' W 123°05'0 0.1
2018-Apr-10 08:28N 49°17' W 123°05'0 0.1
2018-Apr-10 07:58N 49°17' W 123°05'0 0.0
2018-Apr-10 07:28N 49°17' W 123°05'0 0.0
2018-Apr-10 06:58N 49°17' W 123°05'0 0.0
2018-Apr-10 06:28N 49°17' W 123°05'0 0.1
2018-Apr-10 05:58N 49°17' W 123°05'0 0.1
2018-Apr-10 05:28N 49°17' W 123°05'0 0.0
2018-Apr-10 04:58N 49°17' W 123°05'0 0.0
2018-Apr-10 04:28N 49°17' W 123°05'0 0.0
2018-Apr-10 03:58N 49°17' W 123°05'0 0.0
2018-Apr-10 03:28N 49°17' W 123°05'0 0.0
2018-Apr-10 02:52N 49°17' W 123°05'0 0.0
2018-Apr-10 02:28N 49°17' W 123°05'0 0.0
2018-Apr-10 01:58N 49°17' W 123°05'0 0.0
2018-Apr-10 01:28N 49°17' W 123°05'0 0.0
2018-Apr-10 00:58N 49°17' W 123°05'0 0.0
2018-Apr-10 00:28N 49°17' W 123°05'0 0.0
2018-Apr-09 23:58N 49°17' W 123°05'0 0.0
2018-Apr-09 23:28N 49°17' W 123°05'0 0.0
2018-Apr-09 22:58N 49°17' W 123°05'0 0.0
2018-Apr-09 22:28N 49°17' W 123°05'0 0.0
2018-Apr-09 21:58N 49°17' W 123°05'0 0.0
2018-Apr-09 21:28N 49°17' W 123°05'0 0.0
2018-Apr-09 20:58N 49°17' W 123°05'0 0.0
2018-Apr-09 20:28N 49°17' W 123°05'0 0.0
2018-Apr-09 19:58N 49°17' W 123°05'0 0.0
2018-Apr-09 19:28N 49°17' W 123°05'0 0.0
2018-Apr-09 18:58N 49°17' W 123°05'0 0.0
2018-Apr-09 18:28N 49°17' W 123°05'0 0.0
2018-Apr-09 17:58N 49°17' W 123°05'0 0.1
2018-Apr-09 17:28N 49°17' W 123°05'0 0.1
2018-Apr-09 16:58N 49°17' W 123°05'0 0.0
2018-Apr-09 16:28N 49°17' W 123°05'0 0.0
2018-Apr-09 15:58N 49°17' W 123°05'0 0.0
2018-Apr-09 15:28N 49°17' W 123°05'0 0.0
2018-Apr-09 14:58N 49°17' W 123°05'0 0.0
2018-Apr-09 14:31N 49°17' W 123°05'0 0.0
2018-Apr-09 14:01N 49°17' W 123°05'0 0.0
2018-Apr-09 13:30N 49°17' W 123°05'0 0.0
2018-Apr-09 13:01N 49°17' W 123°05'0 0.0
2018-Apr-09 12:30N 49°17' W 123°05'0 0.1
2018-Apr-09 12:00N 49°17' W 123°05'0 0.1
2018-Apr-09 11:30N 49°17' W 123°05'0 0.0
2018-Apr-09 11:00N 49°17' W 123°05'0 0.0
2018-Apr-09 10:30N 49°17' W 123°05'0 0.0
2018-Apr-09 09:57N 49°17' W 123°05'0 0.0
2018-Apr-09 09:30N 49°17' W 123°05'0 0.0
2018-Apr-09 09:00N 49°17' W 123°05'0 0.0
2018-Apr-09 08:30N 49°17' W 123°05'0 0.0
2018-Apr-09 08:00N 49°17' W 123°05'0 0.0
2018-Apr-09 07:30N 49°17' W 123°05'0 0.0
2018-Apr-09 07:00N 49°17' W 123°05'0 0.0
2018-Apr-09 06:30N 49°17' W 123°05'0 0.5
2018-Apr-09 06:00N 49°18' W 123°05'3 5.5
2018-Apr-09 05:31N 49°19' W 123°08'2 3.9
2018-Apr-09 05:00N 49°18' W 123°11'0 0.5
2018-Apr-09 04:22N 49°18' W 123°11'0 0.0
2018-Apr-09 03:55N 49°18' W 123°11'0 0.0
2018-Apr-09 03:28N 49°18' W 123°11'0 0.0
2018-Apr-09 02:58N 49°18' W 123°11'0 0.0
2018-Apr-09 02:28N 49°18' W 123°11'0 0.1
2018-Apr-09 01:55N 49°18' W 123°11'0 0.1
2018-Apr-09 01:28N 49°18' W 123°11'0 0.1
2018-Apr-09 00:58N 49°18' W 123°11'0 0.3
2018-Apr-09 00:25N 49°18' W 123°11'0 0.2
2018-Apr-08 23:58N 49°18' W 123°11'0 0.2
2018-Apr-08 23:28N 49°18' W 123°11'0 0.0
2018-Apr-08 22:58N 49°18' W 123°11'0 0.0
2018-Apr-08 22:28N 49°18' W 123°11'0 0.1
2018-Apr-08 21:52N 49°18' W 123°11'0 0.0
2018-Apr-08 21:28N 49°18' W 123°11'0 0.1
2018-Apr-08 20:58N 49°18' W 123°11'0 0.0
2018-Apr-08 20:28N 49°18' W 123°11'0 0.0
2018-Apr-08 19:58N 49°18' W 123°11'0 0.2
2018-Apr-08 19:25N 49°18' W 123°11'0 0.1
2018-Apr-08 18:49N 49°18' W 123°11'0 0.1
2018-Apr-08 18:28N 49°18' W 123°11'0 0.0
2018-Apr-08 17:58N 49°18' W 123°11'0 0.0
2018-Apr-08 17:25N 49°18' W 123°11'0 0.1
2018-Apr-08 16:58N 49°18' W 123°11'0 0.1
2018-Apr-08 16:28N 49°18' W 123°11'0 0.1
2018-Apr-08 15:58N 49°18' W 123°11'0 0.0
2018-Apr-08 15:28N 49°18' W 123°11'0 0.1
2018-Apr-08 14:55N 49°18' W 123°11'0 0.0
2018-Apr-08 14:28N 49°18' W 123°11'0 0.0
2018-Apr-08 13:58N 49°18' W 123°11'0 0.0
2018-Apr-08 13:28N 49°18' W 123°11'0 0.2
2018-Apr-08 12:58N 49°18' W 123°11'0 0.1
2018-Apr-08 12:28N 49°18' W 123°11'0 0.0
2018-Apr-08 11:58N 49°18' W 123°11'0 0.1
2018-Apr-08 11:28N 49°18' W 123°11'0 0.1
2018-Apr-08 10:58N 49°18' W 123°11'0 0.1
2018-Apr-08 10:28N 49°18' W 123°11'0 0.0
2018-Apr-08 09:58N 49°18' W 123°11'0 0.1
2018-Apr-08 09:28N 49°18' W 123°11'0 0.0
2018-Apr-08 08:58N 49°18' W 123°11'0 0.1
2018-Apr-08 08:28N 49°18' W 123°11'0 0.0
2018-Apr-08 07:58N 49°18' W 123°11'0 0.1
2018-Apr-08 07:28N 49°18' W 123°11'0 0.0
2018-Apr-08 06:58N 49°18' W 123°11'0 0.1
2018-Apr-08 06:28N 49°18' W 123°11'0 0.0
2018-Apr-08 05:55N 49°18' W 123°11'0 0.0
2018-Apr-08 05:22N 49°18' W 123°11'0 0.0
2018-Apr-08 05:01N 49°18' W 123°11'0 0.1
2018-Apr-08 04:28N 49°18' W 123°11'0 0.1
2018-Apr-08 03:58N 49°18' W 123°11'0 0.0
2018-Apr-08 03:27N 49°18' W 123°11'0 0.1
2018-Apr-08 03:00N 49°18' W 123°11'0 0.1
2018-Apr-08 02:27N 49°18' W 123°11'0 0.1
2018-Apr-08 02:00N 49°18' W 123°11'0 0.0
2018-Apr-08 01:27N 49°18' W 123°11'0 0.2
2018-Apr-08 01:00N 49°18' W 123°11'0 0.0
2018-Apr-08 00:30N 49°18' W 123°11'0 0.0
2018-Apr-08 00:00N 49°18' W 123°11'0 0.0
2018-Apr-07 23:30N 49°18' W 123°11'0 0.0
2018-Apr-07 22:51N 49°18' W 123°11'0 0.1
2018-Apr-07 22:24N 49°18' W 123°11'0 0.1
2018-Apr-07 22:00N 49°18' W 123°11'0 0.2
2018-Apr-07 21:30N 49°18' W 123°11'0 0.0
2018-Apr-07 20:57N 49°18' W 123°11'0 0.0
2018-Apr-07 20:30N 49°18' W 123°11'0 0.0
2018-Apr-07 20:00N 49°18' W 123°11'0 0.0
2018-Apr-07 19:30N 49°18' W 123°11'0 0.0
2018-Apr-07 19:00N 49°18' W 123°11'0 0.1
2018-Apr-07 18:27N 49°18' W 123°11'0 0.0
2018-Apr-07 17:48N 49°18' W 123°11'0 0.0
2018-Apr-07 17:30N 49°18' W 123°11'0 0.0
2018-Apr-07 17:00N 49°18' W 123°11'0 0.0
2018-Apr-07 16:21N 49°18' W 123°11'0 0.2
2018-Apr-07 15:45N 49°18' W 123°11'0 0.2
2018-Apr-07 15:30N 49°18' W 123°11'0 0.1
2018-Apr-07 14:57N 49°18' W 123°11'0 0.1
2018-Apr-07 14:30N 49°18' W 123°11'0 0.0
2018-Apr-07 13:57N 49°18' W 123°11'0 0.1
2018-Apr-07 13:30N 49°18' W 123°11'0 0.0
2018-Apr-07 13:00N 49°18' W 123°11'0 0.1
2018-Apr-07 12:27N 49°18' W 123°11'0 0.0
2018-Apr-07 12:00N 49°18' W 123°11'0 0.0
2018-Apr-07 11:30N 49°18' W 123°11'0 0.0
2018-Apr-07 11:00N 49°18' W 123°11'0 0.1
2018-Apr-07 10:27N 49°18' W 123°11'0 0.1
2018-Apr-07 10:00N 49°18' W 123°11'0 0.1
2018-Apr-07 09:30N 49°18' W 123°11'0 0.1
2018-Apr-07 09:00N 49°18' W 123°11'0 0.1
2018-Apr-07 08:30N 49°18' W 123°11'0 0.0
2018-Apr-07 08:00N 49°18' W 123°11'0 0.0
2018-Apr-07 07:30N 49°18' W 123°11'0 0.1
2018-Apr-07 07:00N 49°18' W 123°11'0 0.0
2018-Apr-07 06:30N 49°18' W 123°11'0 0.0
2018-Apr-07 06:00N 49°18' W 123°11'0 0.0
2018-Apr-07 05:27N 49°18' W 123°11'0 0.1
2018-Apr-07 05:00N 49°18' W 123°11'0 0.1
2018-Apr-07 04:27N 49°18' W 123°11'0 0.0
2018-Apr-07 04:00N 49°18' W 123°11'0 0.0
2018-Apr-07 03:27N 49°18' W 123°11'0 0.0
2018-Apr-07 02:57N 49°18' W 123°11'0 0.0
2018-Apr-07 02:30N 49°18' W 123°11'0 0.0
2018-Apr-07 02:00N 49°18' W 123°11'0 0.0
2018-Apr-07 01:24N 49°18' W 123°11'0 0.0
2018-Apr-07 01:00N 49°18' W 123°11'0 0.1
2018-Apr-07 00:30N 49°18' W 123°11'0 0.0
2018-Apr-07 00:00N 49°18' W 123°11'0 0.1
2018-Apr-06 23:24N 49°18' W 123°11'0 0.1
2018-Apr-06 22:57N 49°18' W 123°11'0 0.1
2018-Apr-06 22:24N 49°18' W 123°11'0 0.1
2018-Apr-06 22:00N 49°18' W 123°11'0 0.1
2018-Apr-06 21:30N 49°18' W 123°11'0 0.0
2018-Apr-06 21:00N 49°18' W 123°11'0 0.0
2018-Apr-06 20:30N 49°18' W 123°11'0 0.1
2018-Apr-06 20:00N 49°18' W 123°11'0 0.2
2018-Apr-06 19:30N 49°18' W 123°11'0 0.1
2018-Apr-06 19:00N 49°18' W 123°11'0 0.1
2018-Apr-06 18:30N 49°18' W 123°11'0 0.0
2018-Apr-06 17:56N 49°18' W 123°11'0 0.0
2018-Apr-06 17:26N 49°18' W 123°11'0 0.0
2018-Apr-06 16:56N 49°18' W 123°11'0 0.1
2018-Apr-06 16:29N 49°18' W 123°11'0 0.0
2018-Apr-06 15:59N 49°18' W 123°11'0 0.1
2018-Apr-06 15:23N 49°18' W 123°11'0 0.0
2018-Apr-06 14:59N 49°18' W 123°11'0 0.0
2018-Apr-06 14:29N 49°18' W 123°11'0 0.0
2018-Apr-06 13:47N 49°18' W 123°11'0 0.0
2018-Apr-06 13:29N 49°18' W 123°11'0 0.0
2018-Apr-06 12:56N 49°18' W 123°11'0 0.1
2018-Apr-06 12:29N 49°18' W 123°11'0 0.2
2018-Apr-06 11:59N 49°18' W 123°11'0 0.1
2018-Apr-06 11:29N 49°18' W 123°11'0 0.0
2018-Apr-06 10:56N 49°18' W 123°11'0 0.0
2018-Apr-06 10:26N 49°18' W 123°11'0 0.1
2018-Apr-06 09:59N 49°18' W 123°11'0 0.1
2018-Apr-06 09:26N 49°18' W 123°11'0 0.0
2018-Apr-06 08:56N 49°18' W 123°11'0 0.0
2018-Apr-06 08:29N 49°18' W 123°11'0 0.0
2018-Apr-06 07:59N 49°18' W 123°11'0 0.1
2018-Apr-06 07:29N 49°18' W 123°11'0 0.0
2018-Apr-06 06:59N 49°18' W 123°11'0 0.0
2018-Apr-06 06:26N 49°18' W 123°11'0 0.0
2018-Apr-06 05:59N 49°18' W 123°11'0 0.0
2018-Apr-06 05:29N 49°18' W 123°11'0 0.1
2018-Apr-06 04:59N 49°18' W 123°11'0 0.0
2018-Apr-06 04:29N 49°18' W 123°11'0 0.1
2018-Apr-06 03:59N 49°18' W 123°11'0 0.1
2018-Apr-06 03:29N 49°18' W 123°11'0 0.0
2018-Apr-06 02:59N 49°18' W 123°11'0 0.0
2018-Apr-06 02:26N 49°18' W 123°11'0 0.0
2018-Apr-06 01:59N 49°18' W 123°11'0 0.1
2018-Apr-06 01:29N 49°18' W 123°11'0 0.1
2018-Apr-06 00:59N 49°18' W 123°11'0 0.2
2018-Apr-06 00:23N 49°18' W 123°11'0 0.2
2018-Apr-05 23:56N 49°18' W 123°11'0 0.1
2018-Apr-05 23:29N 49°18' W 123°11'0 0.1
2018-Apr-05 22:56N 49°18' W 123°11'0 0.1
2018-Apr-05 22:26N 49°18' W 123°11'0 0.0
2018-Apr-05 21:59N 49°18' W 123°11'0 0.1
2018-Apr-05 21:29N 49°18' W 123°11'0 0.1
2018-Apr-05 20:59N 49°18' W 123°11'0 0.0
2018-Apr-05 20:29N 49°18' W 123°11'0 0.0
2018-Apr-05 19:56N 49°18' W 123°11'0 0.0
2018-Apr-05 19:29N 49°18' W 123°11'0 0.1
2018-Apr-05 18:56N 49°18' W 123°11'0 0.1
2018-Apr-05 18:29N 49°18' W 123°11'0 0.0
2018-Apr-05 17:59N 49°18' W 123°11'0 0.0
2018-Apr-05 17:29N 49°18' W 123°11'0 0.1
2018-Apr-05 16:59N 49°18' W 123°11'0 0.0
2018-Apr-05 16:26N 49°18' W 123°11'0 0.1
2018-Apr-05 15:44N 49°18' W 123°11'0 0.2
2018-Apr-05 15:29N 49°18' W 123°11'0 0.0
2018-Apr-05 14:59N 49°18' W 123°11'0 0.1
2018-Apr-05 14:26N 49°18' W 123°11'0 0.0
2018-Apr-05 13:59N 49°18' W 123°11'0 0.1
2018-Apr-05 13:26N 49°18' W 123°11'0 0.1
2018-Apr-05 12:53N 49°18' W 123°11'0 0.1
2018-Apr-05 12:29N 49°18' W 123°11'0 0.1
2018-Apr-05 11:59N 49°18' W 123°11'0 0.1
2018-Apr-05 11:26N 49°18' W 123°11'0 0.2
2018-Apr-05 10:56N 49°18' W 123°11'0 0.2
2018-Apr-05 10:23N 49°18' W 123°11'0 0.0
2018-Apr-05 09:59N 49°18' W 123°11'0 0.1
2018-Apr-05 09:23N 49°18' W 123°11'0 0.2
2018-Apr-05 08:55N 49°18' W 123°11'0 0.1
2018-Apr-05 08:28N 49°18' W 123°11'0 0.1
2018-Apr-05 07:58N 49°18' W 123°11'0 0.1
2018-Apr-05 07:28N 49°18' W 123°11'0 0.9
2018-Apr-05 07:00N 49°18' W 123°12'3 6.0
2018-Apr-05 06:29N 49°18' W 123°17'510.8
2018-Apr-05 06:00N 49°13' W 123°19'611.3
2018-Apr-05 05:30N 49°07' W 123°21'3 6.3
2018-Apr-05 05:00N 49°07' W 123°16'4 8.3
2018-Apr-05 04:30N 49°07' W 123°09'4 8.7
2018-Apr-05 04:00N 49°08' W 123°03'4 8.6
2018-Apr-05 03:29N 49°09' W 122°57'2 3.5
2018-Apr-05 02:59N 49°11' W 122°55'0 0.2
2018-Apr-05 02:26N 49°11' W 122°55'0 0.0
2018-Apr-05 01:59N 49°11' W 122°55'0 0.0
2018-Apr-05 01:29N 49°11' W 122°55'0 0.0
2018-Apr-05 00:56N 49°11' W 122°55'0 0.0
2018-Apr-05 00:29N 49°11' W 122°55'0 0.0
2018-Apr-04 23:59N 49°11' W 122°55'0 0.0
2018-Apr-04 23:29N 49°11' W 122°55'0 0.0
2018-Apr-04 22:59N 49°11' W 122°55'0 0.0
2018-Apr-04 22:29N 49°11' W 122°55'0 0.0
2018-Apr-04 21:59N 49°11' W 122°55'0 0.0
2018-Apr-04 21:26N 49°11' W 122°55'0 0.0
2018-Apr-04 20:59N 49°11' W 122°55'0 0.0
2018-Apr-04 20:29N 49°11' W 122°55'0 0.0
2018-Apr-04 19:59N 49°11' W 122°55'0 0.0
2018-Apr-04 19:29N 49°11' W 122°55'0 0.0
2018-Apr-04 18:59N 49°11' W 122°55'0 0.0
2018-Apr-04 18:26N 49°11' W 122°55'0 0.0
2018-Apr-04 17:59N 49°11' W 122°55'0 0.0
2018-Apr-04 17:29N 49°11' W 122°55'0 0.0
2018-Apr-04 16:59N 49°11' W 122°55'0 0.0
2018-Apr-04 16:23N 49°11' W 122°55'0 0.0
2018-Apr-04 15:59N 49°11' W 122°55'0 0.0
2018-Apr-04 15:23N 49°11' W 122°55'0 0.0
2018-Apr-04 14:59N 49°11' W 122°55'0 0.0
2018-Apr-04 14:29N 49°11' W 122°55'0 0.0
2018-Apr-04 13:59N 49°11' W 122°55'0 0.0
2018-Apr-04 13:29N 49°11' W 122°55'0 0.0
2018-Apr-04 12:59N 49°11' W 122°55'0 0.0
2018-Apr-04 12:29N 49°11' W 122°55'0 0.0
2018-Apr-04 11:59N 49°11' W 122°55'0 0.0
2018-Apr-04 11:29N 49°11' W 122°55'0 0.0
2018-Apr-04 10:59N 49°11' W 122°55'0 0.0
2018-Apr-04 10:29N 49°11' W 122°55'0 0.0
2018-Apr-04 09:59N 49°11' W 122°55'0 0.0
2018-Apr-04 09:29N 49°11' W 122°55'0 0.0
2018-Apr-04 08:59N 49°11' W 122°55'0 0.0
2018-Apr-04 08:29N 49°11' W 122°55'0 0.0
2018-Apr-04 07:59N 49°11' W 122°55'0 0.0
2018-Apr-04 07:29N 49°11' W 122°55'0 0.0
2018-Apr-04 06:56N 49°11' W 122°55'0 0.0
2018-Apr-04 06:29N 49°11' W 122°55'0 0.0
2018-Apr-04 05:59N 49°11' W 122°55'0 0.0
2018-Apr-04 05:29N 49°11' W 122°55'0 0.0
2018-Apr-04 04:59N 49°11' W 122°55'0 0.0
2018-Apr-04 04:29N 49°11' W 122°55'0 0.0
2018-Apr-04 03:59N 49°11' W 122°55'0 0.0
2018-Apr-04 03:29N 49°11' W 122°55'0 0.0
2018-Apr-04 02:59N 49°11' W 122°55'0 0.0
2018-Apr-04 02:29N 49°11' W 122°55'0 0.0
2018-Apr-04 01:59N 49°11' W 122°55'0 0.0
2018-Apr-04 01:29N 49°11' W 122°55'0 0.0
2018-Apr-04 00:59N 49°11' W 122°55'0 0.0
2018-Apr-04 00:29N 49°11' W 122°55'0 0.0
2018-Apr-03 23:59N 49°11' W 122°55'0 0.0
2018-Apr-03 23:29N 49°11' W 122°55'0 0.0
2018-Apr-03 22:59N 49°11' W 122°55'0 0.0
2018-Apr-03 22:29N 49°11' W 122°55'0 0.0
2018-Apr-03 21:59N 49°11' W 122°55'0 0.0
2018-Apr-03 21:29N 49°11' W 122°55'0 0.0
2018-Apr-03 20:59N 49°11' W 122°55'0 0.0
2018-Apr-03 20:29N 49°11' W 122°55'0 0.0
2018-Apr-03 19:59N 49°11' W 122°55'0 0.0
2018-Apr-03 19:29N 49°11' W 122°55'0 0.0
2018-Apr-03 18:59N 49°11' W 122°55'0 0.0
2018-Apr-03 18:29N 49°11' W 122°55'0 0.0
2018-Apr-03 17:58N 49°11' W 122°55'0 0.0
2018-Apr-03 17:28N 49°11' W 122°55'0 0.0
2018-Apr-03 16:58N 49°11' W 122°55'0 0.0
2018-Apr-03 16:28N 49°11' W 122°55'0 0.0
2018-Apr-03 15:58N 49°11' W 122°55'0 0.0
2018-Apr-03 15:28N 49°11' W 122°55'0 0.0
2018-Apr-03 14:58N 49°11' W 122°55'0 0.0
2018-Apr-03 14:28N 49°11' W 122°55'0 0.0
2018-Apr-03 13:58N 49°11' W 122°55'0 0.0
2018-Apr-03 13:28N 49°11' W 122°55'0 0.0
2018-Apr-03 12:58N 49°11' W 122°55'0 0.0
2018-Apr-03 12:28N 49°11' W 122°55'0 0.0
2018-Apr-03 11:58N 49°11' W 122°55'0 0.0
2018-Apr-03 11:28N 49°11' W 122°55'0 0.0
2018-Apr-03 10:58N 49°11' W 122°55'0 0.0
2018-Apr-03 10:28N 49°11' W 122°55'0 0.0
2018-Apr-03 09:58N 49°11' W 122°55'0 0.0
2018-Apr-03 09:28N 49°11' W 122°55'0 0.0
2018-Apr-03 08:58N 49°11' W 122°55'0 0.0
2018-Apr-03 08:25N 49°11' W 122°55'0 0.0
2018-Apr-03 07:58N 49°11' W 122°55'0 0.0
2018-Apr-03 07:28N 49°11' W 122°55'0 0.0
2018-Apr-03 06:58N 49°11' W 122°55'0 0.0
2018-Apr-03 06:28N 49°11' W 122°55'0 0.0
2018-Apr-03 05:58N 49°11' W 122°55'0 0.0
2018-Apr-03 05:28N 49°11' W 122°55'0 0.0
2018-Apr-03 04:58N 49°11' W 122°55'0 0.0
2018-Apr-03 04:28N 49°11' W 122°55'0 0.0
2018-Apr-03 03:58N 49°11' W 122°55'0 0.0
2018-Apr-03 03:28N 49°11' W 122°55'0 0.0
2018-Apr-03 02:58N 49°11' W 122°55'0 0.0
2018-Apr-03 02:28N 49°11' W 122°55'0 0.0
2018-Apr-03 01:58N 49°11' W 122°55'0 0.0
2018-Apr-03 01:28N 49°11' W 122°55'0 0.0
2018-Apr-03 00:55N 49°11' W 122°55'0 0.0
2018-Apr-03 00:25N 49°11' W 122°55'0 0.0
2018-Apr-02 23:58N 49°11' W 122°55'0 0.0
2018-Apr-02 23:28N 49°11' W 122°55'0 0.0
2018-Apr-02 22:58N 49°11' W 122°55'0 0.0
2018-Apr-02 22:28N 49°11' W 122°55'0 0.0
2018-Apr-02 21:58N 49°11' W 122°55'0 0.0
2018-Apr-02 21:28N 49°11' W 122°55'0 0.0
2018-Apr-02 20:58N 49°11' W 122°55'0 0.0
2018-Apr-02 20:28N 49°11' W 122°55'0 0.0
2018-Apr-02 19:58N 49°11' W 122°55'0 0.0
2018-Apr-02 19:28N 49°11' W 122°55'0 0.0
2018-Apr-02 18:58N 49°11' W 122°55'  

Dump ship's entire track history